createdAt,value
2023-06-30T00:01:41.325Z,96.92
2023-06-30T00:04:08.697Z,97.21
2023-06-30T00:06:35.854Z,96.83
2023-06-30T00:09:05.291Z,96.55
2023-06-30T00:11:32.696Z,98.40
2023-06-30T00:13:59.945Z,98.16
2023-06-30T00:16:27.244Z,96.95
2023-06-30T00:18:57.230Z,95.07
2023-06-30T00:21:24.430Z,94.00
2023-06-30T00:23:51.515Z,93.38
2023-06-30T00:26:18.596Z,94.96
2023-06-30T00:28:45.790Z,95.77
2023-06-30T00:31:12.835Z,96.81
2023-06-30T00:33:39.960Z,97.08
2023-06-30T00:36:07.103Z,95.95
2023-06-30T00:38:34.274Z,95.44
2023-06-30T00:41:01.471Z,95.03
2023-06-30T00:43:28.558Z,94.52
2023-06-30T00:45:56.056Z,93.37
2023-06-30T00:48:23.431Z,94.15
2023-06-30T00:50:51.032Z,95.79
2023-06-30T00:53:18.457Z,95.13
2023-06-30T00:55:46.309Z,93.63
2023-06-30T00:58:13.662Z,94.39
2023-06-30T01:00:40.796Z,94.21
2023-06-30T01:03:31.876Z,94.28
2023-06-30T01:06:22.671Z,95.61
2023-06-30T01:09:06.772Z,95.80
2023-06-30T01:11:35.320Z,95.09
2023-06-30T01:14:05.889Z,95.87
2023-06-30T01:16:34.670Z,95.71
2023-06-30T01:19:07.522Z,97.19
2023-06-30T01:21:35.433Z,97.06
2023-06-30T01:24:10.672Z,98.52
2023-06-30T01:26:38.699Z,97.06
2023-06-30T01:29:08.055Z,97.31
2023-06-30T01:31:35.476Z,98.84
2023-06-30T01:34:03.892Z,98.26
2023-06-30T01:36:31.045Z,97.43
2023-06-30T01:38:58.080Z,97.24
2023-06-30T01:41:25.418Z,97.34
2023-06-30T01:43:52.989Z,96.12
2023-06-30T01:46:20.268Z,95.22
2023-06-30T01:48:47.884Z,95.45
2023-06-30T01:51:16.597Z,97.04
2023-06-30T01:53:43.678Z,97.77
2023-06-30T01:56:11.094Z,99.28
2023-06-30T01:58:38.206Z,99.84
2023-06-30T02:01:05.398Z,98.84
2023-06-30T02:03:32.582Z,97.89
2023-06-30T02:05:59.692Z,97.93
2023-06-30T02:08:26.806Z,99.42
2023-06-30T02:10:53.900Z,98.45
2023-06-30T02:13:20.925Z,97.79
2023-06-30T02:15:48.282Z,97.82
2023-06-30T02:18:15.465Z,97.59
2023-06-30T02:20:42.547Z,98.15
2023-06-30T02:23:09.664Z,98.10
2023-06-30T02:25:36.730Z,97.91
2023-06-30T02:28:04.044Z,96.99
2023-06-30T02:30:31.192Z,96.63
2023-06-30T02:32:59.019Z,97.42
2023-06-30T02:35:26.362Z,98.42
2023-06-30T02:37:53.524Z,98.93
2023-06-30T02:40:20.653Z,97.92
2023-06-30T02:42:47.850Z,97.13
2023-06-30T02:45:14.963Z,96.77
2023-06-30T02:47:42.050Z,96.14
2023-06-30T02:50:09.579Z,96.57
2023-06-30T02:52:36.713Z,96.53
2023-06-30T02:55:04.190Z,95.45
2023-06-30T02:57:31.234Z,94.85
2023-06-30T02:59:58.387Z,94.46
2023-06-30T03:02:25.808Z,93.42
2023-06-30T03:04:53.026Z,93.14
2023-06-30T03:07:20.154Z,92.83
2023-06-30T03:09:47.302Z,92.53
2023-06-30T03:12:14.691Z,93.09
2023-06-30T03:14:41.903Z,93.08
2023-06-30T03:17:09.046Z,94.16
2023-06-30T03:19:36.251Z,94.02
2023-06-30T03:22:03.379Z,92.62
2023-06-30T03:24:30.541Z,91.75
2023-06-30T03:26:58.011Z,90.80
2023-06-30T03:29:25.061Z,90.80
2023-06-30T03:31:52.207Z,90.27
2023-06-30T03:34:19.290Z,88.74
2023-06-30T03:36:46.438Z,86.45
2023-06-30T03:39:13.550Z,86.04
2023-06-30T03:41:40.711Z,84.30
2023-06-30T03:44:07.800Z,81.36
2023-06-30T03:46:35.514Z,76.54
2023-06-30T03:49:02.624Z,71.89
2023-06-30T03:51:29.850Z,66.42
2023-06-30T03:53:56.937Z,62.28
2023-06-30T03:56:24.200Z,58.63
2023-06-30T03:58:51.272Z,55.87
2023-06-30T04:01:18.337Z,53.76
2023-06-30T04:03:45.610Z,52.48
2023-06-30T04:06:12.933Z,50.96
2023-06-30T04:08:40.061Z,49.49
2023-06-30T04:11:07.163Z,48.17
2023-06-30T04:13:34.361Z,50.96
2023-06-30T04:16:01.556Z,54.47
2023-06-30T04:18:28.710Z,51.64
2023-06-30T04:20:55.770Z,47.75
2023-06-30T04:23:22.808Z,45.07
2023-06-30T04:25:49.893Z,43.08
2023-06-30T04:28:17.189Z,42.01
2023-06-30T04:30:44.352Z,40.53
2023-06-30T04:33:11.402Z,39.61
2023-06-30T04:35:38.580Z,38.63
2023-06-30T04:38:05.733Z,37.96
2023-06-30T04:40:32.945Z,37.13
2023-06-30T04:43:01.518Z,35.83
2023-06-30T04:45:28.931Z,35.12
2023-06-30T04:47:56.343Z,34.44
2023-06-30T04:50:26.222Z,33.98
2023-06-30T04:52:53.433Z,33.33
2023-06-30T04:55:20.574Z,32.75
2023-06-30T04:57:47.685Z,32.75
2023-06-30T05:00:15.513Z,32.07
2023-06-30T05:02:42.757Z,31.64
2023-06-30T05:05:09.962Z,31.31
2023-06-30T05:07:37.164Z,30.60
2023-06-30T05:10:04.436Z,29.99
2023-06-30T05:12:31.607Z,29.60
2023-06-30T05:14:58.650Z,28.95
2023-06-30T05:17:26.018Z,28.80
2023-06-30T05:19:53.218Z,28.06
2023-06-30T05:22:20.372Z,27.37
2023-06-30T05:24:47.525Z,26.73
2023-06-30T05:27:15.411Z,25.79
2023-06-30T05:29:42.503Z,26.06
2023-06-30T05:32:09.750Z,25.67
2023-06-30T05:34:36.832Z,25.34
2023-06-30T05:37:04.229Z,25.46
2023-06-30T05:39:31.358Z,24.79
2023-06-30T05:42:03.173Z,25.29
2023-06-30T05:44:30.357Z,24.47
2023-06-30T05:46:57.562Z,24.26
2023-06-30T05:49:26.508Z,24.10
2023-06-30T05:51:53.614Z,24.07
2023-06-30T05:54:20.805Z,23.98
2023-06-30T05:56:48.138Z,23.05
2023-06-30T05:59:15.255Z,23.67
2023-06-30T06:01:42.341Z,23.58
2023-06-30T06:04:12.075Z,24.22
2023-06-30T06:06:39.778Z,27.81
2023-06-30T06:09:07.590Z,26.39
2023-06-30T06:11:34.732Z,24.70
2023-06-30T06:14:01.871Z,23.91
2023-06-30T06:16:29.037Z,23.33
2023-06-30T06:18:56.265Z,24.47
2023-06-30T06:21:28.613Z,25.23
2023-06-30T06:23:56.791Z,23.21
2023-06-30T06:26:24.018Z,22.58
2023-06-30T06:28:51.195Z,21.98
2023-06-30T06:31:18.393Z,20.99
2023-06-30T06:33:45.566Z,20.89
2023-06-30T06:36:12.751Z,19.79
2023-06-30T06:38:40.007Z,20.77
2023-06-30T06:41:07.054Z,20.99
2023-06-30T06:43:34.215Z,20.83
2023-06-30T06:46:01.355Z,22.56
2023-06-30T06:48:29.740Z,20.89
2023-06-30T06:50:59.346Z,20.80
2023-06-30T06:53:31.906Z,19.78
2023-06-30T06:55:59.111Z,19.89
2023-06-30T06:58:32.564Z,20.58
2023-06-30T07:01:00.095Z,20.62
2023-06-30T07:03:27.409Z,20.41
2023-06-30T07:05:56.388Z,19.79
2023-06-30T07:08:23.761Z,19.99
2023-06-30T07:10:51.736Z,20.50
2023-06-30T07:13:21.213Z,19.99
2023-06-30T07:15:49.976Z,22.02
2023-06-30T07:18:19.981Z,22.16
2023-06-30T07:20:55.385Z,20.58
2023-06-30T07:23:25.405Z,21.77
2023-06-30T07:25:53.860Z,23.82
2023-06-30T07:28:20.981Z,24.16
2023-06-30T07:30:48.731Z,24.60
2023-06-30T07:33:15.788Z,25.11
2023-06-30T07:35:43.404Z,27.09
2023-06-30T07:38:11.144Z,26.51
2023-06-30T07:40:51.072Z,25.99
2023-06-30T07:43:21.848Z,26.77
2023-06-30T07:45:49.496Z,25.94
2023-06-30T07:48:17.002Z,26.35
2023-06-30T07:50:54.760Z,25.54
2023-06-30T07:53:30.798Z,26.00
2023-06-30T07:55:57.864Z,26.56
2023-06-30T07:58:25.046Z,25.60
2023-06-30T08:00:52.139Z,25.27
2023-06-30T08:03:19.619Z,24.44
2023-06-30T08:05:47.714Z,24.27
2023-06-30T08:08:15.501Z,24.04
2023-06-30T08:10:44.714Z,24.71
2023-06-30T08:13:12.308Z,23.21
2023-06-30T08:15:39.463Z,21.92
2023-06-30T08:18:10.314Z,20.93
2023-06-30T08:20:38.203Z,21.02
2023-06-30T08:23:05.586Z,21.81
2023-06-30T08:25:32.783Z,22.05
2023-06-30T08:28:00.084Z,22.57
2023-06-30T08:30:27.258Z,21.58
2023-06-30T08:32:55.951Z,21.87
2023-06-30T08:35:24.901Z,21.98
2023-06-30T08:37:53.833Z,21.26
2023-06-30T08:40:27.069Z,21.01
2023-06-30T08:42:56.421Z,21.50
2023-06-30T08:45:29.519Z,22.90
2023-06-30T08:48:07.344Z,22.04
2023-06-30T08:50:35.065Z,22.26
2023-06-30T08:53:03.340Z,22.13
2023-06-30T08:55:31.253Z,21.91
2023-06-30T08:58:04.292Z,21.62
2023-06-30T09:00:37.201Z,21.78
2023-06-30T09:03:07.580Z,23.18
2023-06-30T09:05:39.764Z,23.25
2023-06-30T09:08:29.579Z,24.23
2023-06-30T09:10:57.767Z,23.78
2023-06-30T09:13:25.649Z,24.40
2023-06-30T09:15:57.330Z,25.09
2023-06-30T09:18:25.046Z,25.40
2023-06-30T09:20:53.940Z,24.39
2023-06-30T09:23:21.162Z,24.97
2023-06-30T09:25:48.819Z,24.72
2023-06-30T09:28:16.419Z,25.23
2023-06-30T09:30:48.356Z,24.40
2023-06-30T09:33:17.890Z,24.86
2023-06-30T09:35:47.929Z,24.52
2023-06-30T09:38:19.351Z,24.01
2023-06-30T09:40:49.577Z,23.53
2023-06-30T09:43:22.347Z,23.38
2023-06-30T09:45:59.290Z,23.06
2023-06-30T09:48:46.810Z,22.58
2023-06-30T09:51:20.623Z,23.46
2023-06-30T09:53:47.796Z,24.04
2023-06-30T09:56:22.863Z,23.56
2023-06-30T09:58:57.064Z,23.75
2023-06-30T10:01:24.734Z,24.23
2023-06-30T10:03:55.996Z,24.68
2023-06-30T10:06:24.744Z,25.21
2023-06-30T10:08:52.790Z,24.43
2023-06-30T10:11:24.643Z,24.63
2023-06-30T10:13:57.020Z,25.39
2023-06-30T10:16:24.410Z,25.68
2023-06-30T10:18:52.843Z,25.88
2023-06-30T10:21:20.467Z,25.98
2023-06-30T10:23:49.628Z,26.56
2023-06-30T10:26:20.725Z,26.54
2023-06-30T10:28:49.002Z,25.90
2023-06-30T10:31:17.072Z,25.79
2023-06-30T10:33:44.411Z,25.27
2023-06-30T10:36:12.281Z,24.30
2023-06-30T10:38:41.882Z,24.50
2023-06-30T10:41:20.591Z,24.03
2023-06-30T10:44:10.441Z,24.17
2023-06-30T10:46:51.241Z,24.51
2023-06-30T10:49:42.238Z,25.34
2023-06-30T10:52:12.249Z,24.89
2023-06-30T10:54:47.672Z,24.55
2023-06-30T10:57:25.376Z,25.06
2023-06-30T11:00:13.028Z,25.32
2023-06-30T11:02:50.790Z,25.66
2023-06-30T11:05:27.639Z,25.13
2023-06-30T11:08:23.184Z,25.20
2023-06-30T11:10:51.691Z,25.43
2023-06-30T11:13:37.590Z,25.81
2023-06-30T11:16:04.957Z,26.12
2023-06-30T11:18:35.039Z,25.45
2023-06-30T11:21:07.021Z,25.47
2023-06-30T11:23:43.839Z,25.65
2023-06-30T11:26:17.647Z,26.61
2023-06-30T11:28:49.522Z,26.28
2023-06-30T11:31:17.758Z,26.32
2023-06-30T11:33:46.393Z,26.18
2023-06-30T11:36:18.858Z,26.15
2023-06-30T11:38:50.738Z,25.67
2023-06-30T11:41:24.707Z,25.03
2023-06-30T11:43:56.768Z,25.79
2023-06-30T11:46:24.724Z,26.55
2023-06-30T11:48:52.063Z,26.57
2023-06-30T11:51:19.282Z,25.88
2023-06-30T11:53:50.130Z,26.30
2023-06-30T11:56:21.034Z,26.43
2023-06-30T11:58:52.616Z,26.84
2023-06-30T12:01:22.889Z,27.08
2023-06-30T12:04:09.877Z,27.01
2023-06-30T12:06:40.188Z,26.52
2023-06-30T12:09:07.872Z,26.47
2023-06-30T12:11:35.092Z,26.41
2023-06-30T12:14:09.753Z,26.04
2023-06-30T12:16:45.120Z,26.25
2023-06-30T12:19:13.932Z,26.69
2023-06-30T12:22:04.969Z,26.86
2023-06-30T12:24:33.749Z,26.97
2023-06-30T12:27:07.916Z,27.11
2023-06-30T12:29:36.706Z,27.00
2023-06-30T12:32:15.530Z,27.25
2023-06-30T12:34:43.368Z,27.31
2023-06-30T12:37:10.680Z,27.73
2023-06-30T12:39:37.767Z,27.47
2023-06-30T12:42:05.492Z,27.61
2023-06-30T12:44:32.719Z,27.60
2023-06-30T12:47:06.574Z,28.17
2023-06-30T12:49:41.015Z,27.68
2023-06-30T12:52:08.760Z,28.59
2023-06-30T12:54:35.811Z,28.24
2023-06-30T12:57:03.075Z,28.49
2023-06-30T12:59:30.268Z,28.57
2023-06-30T13:01:57.494Z,28.75
2023-06-30T13:04:25.960Z,29.52
2023-06-30T13:06:54.633Z,29.33
2023-06-30T13:09:21.766Z,29.58
2023-06-30T13:11:48.872Z,29.46
2023-06-30T13:14:16.985Z,29.92
2023-06-30T13:16:44.076Z,29.83
2023-06-30T13:19:11.885Z,30.05
2023-06-30T13:21:39.020Z,30.30
2023-06-30T13:24:06.696Z,30.33
2023-06-30T13:26:36.165Z,30.16
2023-06-30T13:29:05.015Z,30.82
2023-06-30T13:31:32.127Z,30.97
2023-06-30T13:33:59.513Z,30.78
2023-06-30T13:36:29.362Z,31.01
2023-06-30T13:38:58.498Z,31.24
2023-06-30T13:41:28.436Z,31.99
2023-06-30T13:43:55.627Z,31.79
2023-06-30T13:46:22.863Z,31.81
2023-06-30T13:48:49.983Z,32.06
2023-06-30T13:51:17.111Z,33.09
2023-06-30T13:53:44.267Z,32.76
2023-06-30T13:56:11.341Z,33.02
2023-06-30T13:58:38.410Z,33.20
2023-06-30T14:01:06.741Z,33.88
2023-06-30T14:03:34.631Z,33.51
2023-06-30T14:06:01.905Z,34.03
2023-06-30T14:08:29.064Z,33.79
2023-06-30T14:10:57.492Z,33.88
2023-06-30T14:13:28.542Z,33.77
2023-06-30T14:15:55.671Z,34.46
2023-06-30T14:18:22.780Z,34.28
2023-06-30T14:20:49.918Z,33.45
2023-06-30T14:23:17.140Z,33.84
2023-06-30T14:25:44.806Z,33.51
2023-06-30T14:28:12.240Z,33.62
2023-06-30T14:30:39.492Z,33.96
2023-06-30T14:33:06.798Z,33.99
2023-06-30T14:35:33.931Z,34.02
2023-06-30T14:38:01.582Z,34.45
2023-06-30T14:40:31.111Z,34.64
2023-06-30T14:42:59.580Z,35.16
2023-06-30T14:45:30.978Z,35.58
2023-06-30T14:47:58.633Z,34.77
2023-06-30T14:50:27.011Z,34.00
2023-06-30T14:52:54.690Z,33.03
2023-06-30T14:55:21.848Z,33.85
2023-06-30T14:57:50.787Z,34.32
2023-06-30T15:00:18.380Z,34.73
2023-06-30T15:02:45.585Z,33.40
2023-06-30T15:05:12.841Z,33.11
2023-06-30T15:07:39.922Z,33.46
2023-06-30T15:10:07.913Z,34.13
2023-06-30T15:12:35.271Z,33.66
2023-06-30T15:15:02.558Z,33.74
2023-06-30T15:17:29.694Z,33.49
2023-06-30T15:19:56.838Z,34.04
2023-06-30T15:22:24.031Z,34.22
2023-06-30T15:24:51.184Z,34.18
2023-06-30T15:27:18.336Z,34.31
2023-06-30T15:29:45.502Z,34.38
2023-06-30T15:32:12.583Z,34.33
2023-06-30T15:34:39.726Z,34.10
2023-06-30T15:37:06.875Z,34.16
2023-06-30T15:39:34.011Z,35.23
2023-06-30T15:42:01.110Z,35.30
2023-06-30T15:44:28.178Z,35.67
2023-06-30T15:46:55.248Z,35.72
2023-06-30T15:49:22.344Z,35.78
2023-06-30T15:51:49.500Z,36.14
2023-06-30T15:54:16.731Z,35.88
2023-06-30T15:56:43.877Z,36.03
2023-06-30T15:59:10.941Z,35.38
2023-06-30T16:01:38.018Z,35.59
2023-06-30T16:04:05.419Z,35.79
2023-06-30T16:06:32.597Z,35.49
2023-06-30T16:08:59.743Z,35.48
2023-06-30T16:11:26.893Z,35.21
2023-06-30T16:13:54.001Z,36.01
2023-06-30T16:16:21.228Z,36.03
2023-06-30T16:18:50.190Z,36.22
2023-06-30T16:21:17.431Z,36.38
2023-06-30T16:23:44.480Z,36.37
2023-06-30T16:26:11.719Z,36.71
2023-06-30T16:28:38.778Z,37.67
2023-06-30T16:31:05.899Z,37.26
2023-06-30T16:33:33.106Z,37.22
2023-06-30T16:36:00.246Z,37.60
2023-06-30T16:38:27.299Z,37.63
2023-06-30T16:40:54.442Z,37.36
2023-06-30T16:43:21.939Z,36.86
2023-06-30T16:45:49.566Z,36.57
2023-06-30T16:48:17.005Z,36.90
2023-06-30T16:50:44.089Z,36.63
2023-06-30T16:53:11.119Z,36.54
2023-06-30T16:55:38.177Z,36.28
2023-06-30T16:58:05.280Z,36.38
2023-06-30T17:00:32.399Z,36.40
2023-06-30T17:02:59.517Z,36.84
2023-06-30T17:05:26.722Z,36.93
2023-06-30T17:07:53.826Z,36.95
2023-06-30T17:10:20.931Z,37.63
2023-06-30T17:12:48.023Z,37.37
2023-06-30T17:15:15.174Z,37.28
2023-06-30T17:17:42.294Z,37.96
2023-06-30T17:20:09.914Z,38.02
2023-06-30T17:22:37.067Z,38.51
2023-06-30T17:25:05.796Z,38.50
2023-06-30T17:27:33.517Z,38.60
2023-06-30T17:30:00.628Z,38.30
2023-06-30T17:32:27.839Z,38.32
2023-06-30T17:34:54.963Z,39.07
2023-06-30T17:37:22.154Z,39.33
2023-06-30T17:39:49.285Z,39.45
2023-06-30T17:42:16.664Z,39.32
2023-06-30T17:44:44.568Z,39.15
2023-06-30T17:47:11.931Z,39.64
2023-06-30T17:49:39.257Z,39.14
2023-06-30T17:52:06.728Z,39.77
2023-06-30T17:54:34.201Z,39.99
2023-06-30T17:57:01.417Z,39.90
2023-06-30T17:59:31.983Z,40.50
2023-06-30T18:01:59.827Z,40.42
2023-06-30T18:04:27.348Z,40.74
2023-06-30T18:07:09.437Z,40.97
2023-06-30T18:09:44.857Z,41.33
2023-06-30T18:12:12.595Z,41.29
2023-06-30T18:14:42.313Z,41.68
2023-06-30T18:17:10.008Z,41.81
2023-06-30T18:19:37.128Z,41.99
2023-06-30T18:22:04.422Z,42.23
2023-06-30T18:24:31.571Z,42.23
2023-06-30T18:26:59.545Z,42.49
2023-06-30T18:29:26.988Z,43.14
2023-06-30T18:31:57.457Z,42.80
2023-06-30T18:34:26.570Z,43.06
2023-06-30T18:36:53.652Z,43.39
2023-06-30T18:39:21.375Z,43.81
2023-06-30T18:41:48.546Z,43.79
2023-06-30T18:44:15.691Z,43.75
2023-06-30T18:46:43.071Z,44.25
2023-06-30T18:49:12.389Z,44.83
2023-06-30T18:51:43.068Z,44.79
2023-06-30T18:54:10.830Z,44.77
2023-06-30T18:56:38.321Z,45.10
2023-06-30T18:59:05.587Z,45.22
2023-06-30T19:01:32.927Z,45.52
2023-06-30T19:04:00.161Z,46.23
2023-06-30T19:06:27.693Z,46.15
2023-06-30T19:08:55.456Z,46.09
2023-06-30T19:11:23.395Z,45.89
2023-06-30T19:13:51.240Z,45.96
2023-06-30T19:16:18.705Z,46.26
2023-06-30T19:18:46.656Z,46.45
2023-06-30T19:21:13.961Z,46.49
2023-06-30T19:23:42.723Z,46.41
2023-06-30T19:26:11.983Z,46.78
2023-06-30T19:28:42.471Z,47.13
2023-06-30T19:31:09.683Z,47.34
2023-06-30T19:33:38.012Z,47.62
2023-06-30T19:36:05.708Z,47.85
2023-06-30T19:38:32.825Z,48.06
2023-06-30T19:41:00.009Z,47.74
2023-06-30T19:43:27.124Z,48.19
2023-06-30T19:45:54.284Z,48.50
2023-06-30T19:48:21.571Z,48.62
2023-06-30T19:50:48.738Z,48.20
2023-06-30T19:53:16.031Z,48.26
2023-06-30T19:55:43.201Z,48.72
2023-06-30T19:58:11.017Z,49.08
2023-06-30T20:00:39.251Z,49.16
2023-06-30T20:03:07.137Z,49.36
2023-06-30T20:05:34.444Z,49.05
2023-06-30T20:08:01.697Z,49.43
2023-06-30T20:10:28.834Z,49.53
2023-06-30T20:12:56.053Z,50.09
2023-06-30T20:15:23.690Z,51.63
2023-06-30T20:17:50.925Z,52.97
2023-06-30T20:20:18.247Z,54.26
2023-06-30T20:22:46.773Z,55.43
2023-06-30T20:25:15.414Z,55.93
2023-06-30T20:27:44.682Z,56.88
2023-06-30T20:30:13.756Z,57.30
2023-06-30T20:32:40.891Z,58.96
2023-06-30T20:35:09.998Z,59.17
2023-06-30T20:37:37.313Z,59.39
2023-06-30T20:40:05.154Z,59.17
2023-06-30T20:42:32.286Z,60.07
2023-06-30T20:44:59.358Z,60.94
2023-06-30T20:47:26.700Z,61.10
2023-06-30T20:49:54.304Z,61.42
2023-06-30T20:52:21.433Z,61.77
2023-06-30T20:54:48.502Z,61.90
2023-06-30T20:57:15.702Z,62.00
2023-06-30T20:59:43.109Z,61.97
2023-06-30T21:02:10.373Z,61.51
2023-06-30T21:04:37.680Z,61.74
2023-06-30T21:07:05.265Z,61.67
2023-06-30T21:09:32.389Z,61.41
2023-06-30T21:12:01.510Z,61.65
2023-06-30T21:14:28.890Z,61.60
2023-06-30T21:16:56.036Z,61.59
2023-06-30T21:19:23.788Z,61.34
2023-06-30T21:21:50.897Z,62.01
2023-06-30T21:24:18.167Z,62.12
2023-06-30T21:26:45.288Z,61.91
2023-06-30T21:29:12.601Z,61.91
2023-06-30T21:31:39.955Z,62.70
2023-06-30T21:34:07.130Z,62.70
2023-06-30T21:36:36.499Z,62.37
2023-06-30T21:39:05.765Z,62.52
2023-06-30T21:41:32.984Z,62.83
2023-06-30T21:44:00.329Z,63.65
2023-06-30T21:46:27.538Z,64.00
2023-06-30T21:48:54.864Z,64.36
2023-06-30T21:51:21.997Z,65.42
2023-06-30T21:53:52.427Z,65.89
2023-06-30T21:56:19.551Z,67.07
2023-06-30T21:58:46.744Z,68.08
2023-06-30T22:01:15.197Z,70.08
2023-06-30T22:03:45.237Z,70.55
2023-06-30T22:06:12.461Z,71.62
2023-06-30T22:08:39.538Z,72.07
2023-06-30T22:11:06.683Z,72.64
2023-06-30T22:13:35.300Z,73.76
2023-06-30T22:16:02.426Z,74.80
2023-06-30T22:18:30.007Z,75.62
2023-06-30T22:20:57.202Z,76.63
2023-06-30T22:23:24.247Z,77.82
2023-06-30T22:25:51.442Z,77.82
2023-06-30T22:28:18.529Z,78.78
2023-06-30T22:30:46.035Z,79.70
2023-06-30T22:33:13.427Z,80.25
2023-06-30T22:35:42.889Z,81.34
2023-06-30T22:38:10.116Z,81.23
2023-06-30T22:40:37.214Z,81.79
2023-06-30T22:43:04.464Z,81.55
2023-06-30T22:45:31.703Z,81.77
2023-06-30T22:47:58.838Z,82.17
2023-06-30T22:50:26.006Z,81.83
2023-06-30T22:52:53.032Z,82.12
2023-06-30T22:55:20.135Z,82.46
2023-06-30T22:57:47.187Z,81.47
2023-06-30T23:00:15.019Z,81.94
2023-06-30T23:02:42.074Z,81.54
2023-06-30T23:05:10.580Z,81.73
2023-06-30T23:07:37.642Z,82.27
2023-06-30T23:10:05.031Z,82.04
2023-06-30T23:12:32.131Z,82.78
2023-06-30T23:14:59.136Z,82.18
2023-06-30T23:17:28.104Z,83.28
2023-06-30T23:19:55.554Z,83.78
2023-06-30T23:22:26.929Z,84.63
2023-06-30T23:24:54.031Z,84.04
2023-06-30T23:27:24.610Z,83.63
2023-06-30T23:29:52.022Z,83.44
2023-06-30T23:32:22.421Z,84.70
2023-06-30T23:34:50.633Z,85.37
2023-06-30T23:37:19.021Z,85.96
2023-06-30T23:39:51.591Z,85.81
2023-06-30T23:42:19.260Z,86.90
2023-06-30T23:44:46.500Z,87.72
2023-06-30T23:47:16.357Z,88.38
2023-06-30T23:49:43.631Z,88.35
2023-06-30T23:52:10.867Z,87.99
2023-06-30T23:54:37.963Z,87.92
2023-06-30T23:57:05.831Z,87.62
2023-06-30T23:59:33.057Z,88.67
